Time;durP1;ratioP1;P1;durP2;ratioP2;P2;SDS_P1;SDS_P2;PMS_P1;PMS_P2;Temp;Humidity;BMP_temperature;BMP_pressure;BME280_temperature;BME280_humidity;BME280_pressure;Samples;Min_cycle;Max_cycle;Signal;HPM_P1;HPM_P2
2022/08/13 00:02:00;;;;;;;3.33;1.48;;;13.50;99.90;;;;;;5035596;28;20018;-80
2022/08/13 00:04:26;;;;;;;2.05;1.40;;;13.50;99.70;;;;;;5035481;28;20026;-80
2022/08/13 00:07:07;;;;;;;2.60;1.35;;;13.40;99.70;;;;;;5017471;28;20052;-80
2022/08/13 00:09:34;;;;;;;;;;;13.40;99.90;;;;;;5017299;28;20044;-80
2022/08/13 00:14:46;;;;;;;3.45;1.40;;;13.30;99.90;;;;;;5015405;28;20041;-80
2022/08/13 00:17:14;;;;;;;3.95;1.50;;;13.30;99.90;;;;;;5032593;28;20032;-80
2022/08/13 00:19:44;;;;;;;3.90;1.40;;;13.30;99.90;;;;;;5016167;28;20018;-80
2022/08/13 00:22:12;;;;;;;2.20;1.42;;;13.20;99.90;;;;;;5015952;28;20110;-80
2022/08/13 00:24:38;;;;;;;3.33;1.40;;;13.20;99.90;;;;;;5013995;28;20053;-80
2022/08/13 00:27:06;;;;;;;2.25;1.50;;;13.20;99.90;;;;;;5026061;28;20040;-80
2022/08/13 00:29:32;;;;;;;2.72;1.58;;;13.10;99.90;;;;;;5017255;28;20033;-80
2022/08/13 00:31:57;;;;;;;3.33;1.40;;;13.10;99.90;;;;;;5017510;28;20022;-80
2022/08/13 00:34:23;;;;;;;2.03;1.40;;;13.10;99.90;;;;;;5034771;28;20048;-80
2022/08/13 00:36:49;;;;;;;2.70;1.50;;;13.00;99.90;;;;;;5017091;28;20064;-80
2022/08/13 00:39:15;;;;;;;2.05;1.30;;;12.90;99.90;;;;;;5034822;28;20028;-80
2022/08/13 00:41:44;;;;;;;2.63;1.50;;;12.90;99.90;;;;;;5033310;28;20512;-79
2022/08/13 00:44:13;;;;;;;2.25;1.42;;;12.90;99.90;;;;;;5015407;28;20025;-80
2022/08/13 00:46:39;;;;;;;2.42;1.50;;;12.80;99.90;;;;;;5034126;28;20017;-80
2022/08/13 00:49:06;;;;;;;3.95;1.30;;;12.80;99.90;;;;;;5035605;28;20021;-80
2022/08/13 00:51:34;;;;;;;3.63;1.60;;;12.80;99.90;;;;;;5017446;28;20033;-80
2022/08/13 00:54:02;;;;;;;2.63;1.42;;;12.70;99.90;;;;;;5032986;28;20401;-80
2022/08/13 00:56:33;;;;;;;2.42;1.35;;;12.80;99.90;;;;;;5036056;28;20422;-80
2022/08/13 00:59:03;;;;;;;1.60;1.10;;;12.60;99.90;;;;;;5014853;28;20021;-80
2022/08/13 01:01:29;;;;;;;2.38;1.40;;;12.50;99.90;;;;;;5033691;28;20032;-80
2022/08/13 01:03:56;;;;;;;2.55;1.40;;;12.50;99.90;;;;;;5015900;28;20437;-80
2022/08/13 01:06:22;;;;;;;3.70;1.80;;;12.50;99.90;;;;;;5016011;28;20393;-80
2022/08/13 01:08:50;;;;;;;4.00;1.60;;;12.50;99.90;;;;;;5016869;28;20474;-80
2022/08/13 01:11:17;;;;;;;2.20;1.50;;;12.50;99.90;;;;;;5034436;28;20429;-80
2022/08/13 01:13:44;;;;;;;3.63;1.60;;;12.50;99.90;;;;;;5034204;28;20033;-80
2022/08/13 01:16:13;;;;;;;2.47;1.50;;;12.50;99.90;;;;;;5015962;28;20072;-80
2022/08/13 01:18:48;;;;;;;3.45;1.35;;;12.50;99.90;;;;;;5006982;28;20413;-80
2022/08/13 01:21:24;;;;;;;2.90;1.60;;;12.60;99.90;;;;;;5033482;28;20109;-80
2022/08/13 01:23:53;;;;;;;3.08;1.40;;;12.60;99.90;;;;;;5035092;28;20014;-79
2022/08/13 01:26:21;;;;;;;3.47;1.70;;;12.60;99.90;;;;;;5017125;28;20429;-80
2022/08/13 01:28:50;;;;;;;3.00;1.73;;;12.50;99.90;;;;;;5025510;28;20032;-80
2022/08/13 01:31:18;;;;;;;2.55;1.70;;;12.50;99.90;;;;;;5025008;28;20022;-80
2022/08/13 01:33:48;;;;;;;2.30;1.40;;;12.50;99.90;;;;;;5014408;28;20030;-80
2022/08/13 01:36:15;;;;;;;2.63;1.40;;;12.40;99.90;;;;;;5010350;28;20078;-80
2022/08/13 01:38:42;;;;;;;2.85;1.40;;;12.40;99.90;;;;;;5016425;28;20021;-80
2022/08/13 01:41:08;;;;;;;3.05;1.33;;;12.30;99.90;;;;;;5017672;28;20401;-80
2022/08/13 01:43:38;;;;;;;3.65;1.80;;;12.30;99.90;;;;;;5034034;28;20017;-80
2022/08/13 01:46:07;;;;;;;2.38;1.50;;;12.30;99.90;;;;;;5033649;28;20029;-80
2022/08/13 01:51:27;;;;;;;4.93;1.70;;;12.30;99.90;;;;;;5017707;28;20041;-80
2022/08/13 01:53:58;;;;;;;4.55;1.80;;;12.30;99.90;;;;;;5015890;28;20473;-80
2022/08/13 01:56:24;;;;;;;2.85;1.70;;;12.30;99.90;;;;;;5032176;28;20478;-80
2022/08/13 01:58:52;;;;;;;2.20;1.60;;;12.30;99.90;;;;;;5015240;28;20481;-80
2022/08/13 02:01:18;;;;;;;3.40;1.60;;;12.20;99.90;;;;;;5030188;28;20113;-80
2022/08/13 02:03:48;;;;;;;3.83;1.73;;;12.20;99.90;;;;;;5015816;28;20033;-80
2022/08/13 02:06:20;;;;;;;2.00;1.50;;;12.20;99.90;;;;;;5015182;28;20121;-80
2022/08/13 02:08:50;;;;;;;3.63;1.90;;;12.20;99.90;;;;;;5015157;28;20026;-80
2022/08/13 02:11:16;;;;;;;4.32;2.03;;;12.20;99.90;;;;;;5033300;28;20021;-80
2022/08/13 02:13:42;;;;;;;2.67;1.80;;;12.10;99.90;;;;;;5032817;28;20038;-80
2022/08/13 02:16:08;;;;;;;4.03;1.90;;;12.10;99.90;;;;;;5032771;28;20021;-80
2022/08/13 02:18:33;;;;;;;2.55;1.70;;;12.10;99.90;;;;;;5015358;28;20032;-80
2022/08/13 02:21:02;;;;;;;3.35;1.40;;;12.00;99.90;;;;;;5015270;28;20021;-80
2022/08/13 02:23:33;;;;;;;2.60;1.60;;;11.90;99.90;;;;;;5032581;28;20104;-80
2022/08/13 02:26:01;;;;;;;2.75;1.60;;;11.90;99.90;;;;;;5015411;28;20097;-80
2022/08/13 02:28:32;;;;;;;2.38;1.80;;;11.90;99.90;;;;;;5015053;28;20030;-80
2022/08/13 02:30:57;;;;;;;2.47;1.73;;;11.90;99.90;;;;;;5015245;28;20026;-80
2022/08/13 02:33:24;;;;;;;2.65;1.70;;;11.90;99.90;;;;;;5015014;28;20059;-80
2022/08/13 02:35:50;;;;;;;2.75;1.85;;;11.90;99.90;;;;;;5015192;28;20183;-80
2022/08/13 02:38:17;;;;;;;3.30;1.98;;;11.90;99.90;;;;;;5015281;28;20489;-80
2022/08/13 02:43:29;;;;;;;2.88;1.73;;;11.90;99.90;;;;;;5037143;28;20517;-80
2022/08/13 02:45:55;;;;;;;3.50;1.85;;;11.90;99.90;;;;;;5019106;28;20041;-80
2022/08/13 02:48:24;;;;;;;2.17;1.58;;;11.90;99.90;;;;;;5036438;28;20044;-80
2022/08/13 02:50:55;;;;;;;3.28;1.52;;;11.90;99.90;;;;;;5037080;28;20377;-80
2022/08/13 02:53:23;;;;;;;3.17;1.90;;;11.90;99.90;;;;;;5033349;28;20021;-80
2022/08/13 02:55:50;;;;;;;2.17;1.60;;;12.00;99.90;;;;;;5036567;28;20030;-80
2022/08/13 02:58:17;;;;;;;2.95;1.80;;;11.90;99.90;;;;;;5018417;28;20112;-80
2022/08/13 03:00:48;;;;;;;2.75;1.58;;;12.00;99.90;;;;;;5018849;28;20037;-80
2022/08/13 03:03:16;;;;;;;2.28;1.48;;;11.90;99.90;;;;;;5018540;28;20120;-80
2022/08/13 03:05:42;;;;;;;2.38;1.48;;;11.90;99.90;;;;;;5018581;28;20038;-80
2022/08/13 03:08:08;;;;;;;2.20;1.60;;;11.80;99.90;;;;;;5015811;28;20049;-80
2022/08/13 03:10:34;;;;;;;2.45;1.63;;;11.80;99.90;;;;;;5018083;28;20489;-80
2022/08/13 03:13:08;;;;;;;2.45;1.70;;;11.80;99.90;;;;;;5036379;28;20113;-80
2022/08/13 03:15:35;;;;;;;3.83;1.40;;;11.70;99.90;;;;;;5036019;28;20148;-80
2022/08/13 03:18:01;;;;;;;4.03;1.70;;;11.70;99.90;;;;;;5018349;28;20560;-80
2022/08/13 03:20:27;;;;;;;2.80;1.77;;;11.70;99.90;;;;;;5018386;28;20026;-81
2022/08/13 03:22:57;;;;;;;2.97;1.83;;;11.70;99.90;;;;;;5017416;28;20021;-80
2022/08/13 03:25:26;;;;;;;3.17;1.70;;;11.70;99.90;;;;;;5035813;28;20080;-80
2022/08/13 03:27:53;;;;;;;2.67;1.58;;;11.70;99.90;;;;;;5018062;28;20393;-80
2022/08/13 03:30:21;;;;;;;3.58;1.88;;;11.60;99.90;;;;;;5017675;28;20064;-80
2022/08/13 03:32:48;;;;;;;2.83;1.95;;;11.50;99.90;;;;;;5035768;28;20030;-80
2022/08/13 03:35:17;;;;;;;2.63;1.90;;;11.50;99.90;;;;;;5017902;28;20030;-80
2022/08/13 03:37:44;;;;;;;3.63;2.00;;;11.50;99.90;;;;;;5017179;28;20124;-80
2022/08/13 03:40:11;;;;;;;2.60;1.70;;;11.50;99.90;;;;;;5035607;28;20036;-80
2022/08/13 03:42:39;;;;;;;4.63;2.00;;;11.50;99.90;;;;;;5017530;28;20128;-80
2022/08/13 03:45:06;;;;;;;2.78;2.00;;;11.50;99.90;;;;;;5034987;28;20032;-80
2022/08/13 03:47:32;;;;;;;2.70;1.65;;;11.50;99.90;;;;;;5017583;28;20034;-80
2022/08/13 03:49:59;;;;;;;3.72;2.05;;;11.50;99.90;;;;;;5033902;28;20048;-80
2022/08/13 03:52:27;;;;;;;3.05;1.98;;;11.40;99.90;;;;;;5013787;28;20477;-80
2022/08/13 03:54:52;;;;;;;3.80;1.90;;;11.40;99.90;;;;;;5035349;28;20045;-80
2022/08/13 03:57:19;;;;;;;3.63;1.90;;;11.40;99.90;;;;;;5017677;28;20047;-80
2022/08/13 03:59:48;;;;;;;3.15;1.85;;;11.30;99.90;;;;;;5035108;28;20068;-80
2022/08/13 04:02:15;;;;;;;3.00;1.85;;;11.20;99.90;;;;;;5035380;28;20037;-81
2022/08/13 04:04:47;;;;;;;3.58;2.00;;;11.20;99.90;;;;;;5017535;28;20029;-80
2022/08/13 04:07:15;;;;;;;3.20;1.83;;;11.10;99.90;;;;;;5016432;28;20396;-80
2022/08/13 04:09:42;;;;;;;2.50;1.90;;;11.10;99.90;;;;;;5016725;28;20029;-79
2022/08/13 04:12:11;;;;;;;3.45;1.80;;;11.10;99.90;;;;;;5034636;28;20034;-79
2022/08/13 04:14:40;;;;;;;4.70;1.80;;;11.00;99.90;;;;;;5034748;28;20416;-79
2022/08/13 04:17:10;;;;;;;5.30;1.77;;;11.00;99.90;;;;;;5034979;28;20032;-79
2022/08/13 04:19:38;;;;;;;2.67;1.90;;;11.00;99.90;;;;;;5034908;28;20064;-79
2022/08/13 04:22:06;;;;;;;4.40;1.85;;;11.00;99.90;;;;;;5017004;28;20029;-79
2022/08/13 04:24:33;;;;;;;2.95;2.03;;;11.00;99.90;;;;;;5016189;28;20475;-79
2022/08/13 04:26:59;;;;;;;3.80;2.00;;;10.90;99.90;;;;;;5034329;28;20021;-79
2022/08/13 04:29:25;;;;;;;2.22;1.83;;;10.90;99.90;;;;;;5034780;28;20486;-79
2022/08/13 04:31:52;;;;;;;2.55;1.90;;;10.90;99.90;;;;;;5030132;28;20043;-79
2022/08/13 04:34:19;;;;;;;3.03;2.00;;;10.80;99.90;;;;;;5033325;28;20044;-79
2022/08/13 04:36:45;;;;;;;3.90;1.90;;;10.90;99.90;;;;;;5016142;28;20367;-79
2022/08/13 04:39:11;;;;;;;5.43;2.10;;;10.90;99.90;;;;;;5016541;28;20028;-79
2022/08/13 04:41:37;;;;;;;2.78;1.73;;;10.90;99.90;;;;;;5024392;28;20116;-79
2022/08/13 04:44:03;;;;;;;3.80;2.53;;;10.90;99.90;;;;;;5035276;28;20133;-79
2022/08/13 04:46:28;;;;;;;3.33;1.88;;;10.90;99.90;;;;;;5022089;28;20059;-79
2022/08/13 04:48:55;;;;;;;2.40;1.70;;;10.90;99.90;;;;;;5017755;28;20061;-79
2022/08/13 04:51:23;;;;;;;4.05;2.25;;;10.90;99.90;;;;;;5033368;28;20090;-79
2022/08/13 04:53:49;;;;;;;3.00;2.25;;;10.80;99.90;;;;;;5033927;28;20033;-79
2022/08/13 04:56:14;;;;;;;4.35;2.30;;;10.70;99.90;;;;;;5015085;28;20029;-79
2022/08/13 04:58:40;;;;;;;3.10;2.13;;;10.70;99.90;;;;;;5015334;28;20175;-79
2022/08/13 05:01:09;;;;;;;3.58;2.35;;;10.70;99.90;;;;;;5016078;28;20029;-79
2022/08/13 05:03:40;;;;;;;5.55;2.70;;;10.70;99.90;;;;;;5013997;28;20029;-79
2022/08/13 05:06:13;;;;;;;2.33;1.80;;;10.70;99.90;;;;;;5033436;28;20026;-79
2022/08/13 05:08:41;;;;;;;4.68;2.25;;;10.70;99.90;;;;;;5016916;28;20067;-79
2022/08/13 05:11:12;;;;;;;4.88;2.20;;;10.70;99.90;;;;;;5033928;28;20033;-79
2022/08/13 05:13:39;;;;;;;3.15;2.10;;;10.80;99.90;;;;;;5032258;28;20030;-79
2022/08/13 05:16:08;;;;;;;3.60;2.17;;;10.80;99.90;;;;;;5015405;28;20032;-79
2022/08/13 05:18:42;;;;;;;5.05;2.28;;;10.80;99.90;;;;;;5033941;28;20029;-79
2022/08/13 05:21:11;;;;;;;3.05;2.15;;;10.80;99.90;;;;;;5032563;28;20018;-79
2022/08/13 05:23:38;;;;;;;3.50;2.20;;;10.80;99.90;;;;;;5010858;28;20080;-79
2022/08/13 05:26:05;;;;;;;2.38;1.80;;;10.80;99.90;;;;;;5015929;28;20083;-79
2022/08/13 05:28:32;;;;;;;3.67;2.28;;;10.80;99.90;;;;;;5010954;28;20030;-78
2022/08/13 05:30:59;;;;;;;10.43;2.35;;;10.80;99.90;;;;;;5012911;28;20029;-78
2022/08/13 05:33:28;;;;;;;2.42;1.67;;;10.80;99.90;;;;;;5031940;28;20026;-78
2022/08/13 05:35:57;;;;;;;6.80;2.28;;;10.80;99.90;;;;;;5006692;28;20124;-79
2022/08/13 05:38:25;;;;;;;2.53;2.03;;;10.80;99.90;;;;;;5033665;28;20025;-79
2022/08/13 05:40:52;;;;;;;3.92;2.15;;;10.70;99.90;;;;;;5005683;28;20029;-79
2022/08/13 05:43:21;;;;;;;5.40;2.70;;;10.80;99.90;;;;;;5031735;28;20029;-79
2022/08/13 05:45:58;;;;;;;3.60;2.38;;;10.70;99.90;;;;;;5032511;28;20032;-79
2022/08/13 05:48:28;;;;;;;3.28;2.20;;;10.80;99.90;;;;;;5027397;28;20034;-79
2022/08/13 05:50:55;;;;;;;3.15;2.22;;;10.80;99.90;;;;;;5030407;28;20112;-79
2022/08/13 05:53:21;;;;;;;5.05;2.58;;;10.90;99.90;;;;;;5015748;28;20030;-79
2022/08/13 05:55:47;;;;;;;5.40;2.88;;;10.90;99.90;;;;;;5015295;28;20029;-79
2022/08/13 05:58:13;;;;;;;4.07;2.38;;;11.00;99.90;;;;;;5016184;28;20026;-79
2022/08/13 06:03:27;;;;;;;4.90;2.85;;;11.10;99.90;;;;;;5033998;28;20492;-79
2022/08/13 06:06:05;;;;;;;3.30;2.30;;;11.20;99.90;;;;;;5031406;28;20118;-80
2022/08/13 06:08:34;;;;;;;3.58;2.67;;;11.30;99.90;;;;;;5012729;28;20397;-80
2022/08/13 06:11:19;;;;;;;4.15;2.60;;;11.40;99.90;;;;;;5012123;28;20059;-79
2022/08/13 06:13:48;;;;;;;3.63;2.53;;;11.40;99.90;;;;;;5015249;28;20032;-80
2022/08/13 06:16:17;;;;;;;3.25;2.25;;;11.50;99.90;;;;;;5034073;28;20018;-79
2022/08/13 06:18:44;;;;;;;5.00;2.92;;;11.60;99.90;;;;;;5018854;28;20022;-79
2022/08/13 06:21:12;;;;;;;3.95;2.85;;;11.70;99.90;;;;;;5035338;28;20031;-79
2022/08/13 06:23:40;;;;;;;5.22;3.25;;;11.80;99.90;;;;;;5018000;28;20083;-80
2022/08/13 06:26:08;;;;;;;4.38;3.28;;;11.90;99.90;;;;;;5018003;28;20032;-80
2022/08/13 06:28:35;;;;;;;4.93;3.28;;;12.00;99.90;;;;;;5032531;28;20025;-79
2022/08/13 06:31:07;;;;;;;4.88;3.10;;;12.10;99.90;;;;;;5036904;28;20036;-80
2022/08/13 06:33:36;;;;;;;4.07;3.20;;;12.20;99.90;;;;;;5019212;28;20458;-80
2022/08/13 06:36:05;;;;;;;3.60;2.75;;;12.30;99.90;;;;;;5018183;28;20433;-80
2022/08/13 06:38:34;;;;;;;4.18;2.55;;;12.40;99.90;;;;;;5032536;28;20018;-80
2022/08/13 06:41:01;;;;;;;4.10;2.90;;;12.50;99.90;;;;;;5018848;28;20485;-80
2022/08/13 06:43:32;;;;;;;3.88;2.75;;;12.60;99.90;;;;;;5016666;28;20041;-80
2022/08/13 06:45:59;;;;;;;4.20;2.83;;;12.70;99.90;;;;;;5018270;28;20036;-80
2022/08/13 06:48:27;;;;;;;5.20;3.17;;;12.80;99.90;;;;;;5037361;28;20104;-80
2022/08/13 06:50:53;;;;;;;5.00;2.97;;;12.80;99.90;;;;;;5034740;28;20174;-80
2022/08/13 06:53:19;;;;;;;4.47;3.10;;;12.90;99.90;;;;;;5013469;28;20046;-80
2022/08/13 06:55:48;;;;;;;5.30;3.20;;;12.90;99.90;;;;;;5036553;28;20033;-81
2022/08/13 06:58:15;;;;;;;5.53;3.53;;;12.90;99.90;;;;;;5018747;28;20029;-81
2022/08/13 07:00:42;;;;;;;5.68;3.85;;;13.00;99.90;;;;;;5018487;28;20045;-80
2022/08/13 07:03:10;;;;;;;7.13;5.43;;;13.20;99.90;;;;;;5034768;28;20111;-80
2022/08/13 07:05:38;;;;;;;6.28;4.90;;;13.30;99.90;;;;;;5017577;28;20026;-80
2022/08/13 07:08:07;;;;;;;7.40;5.65;;;13.40;99.90;;;;;;5016384;28;20509;-80
2022/08/13 07:10:37;;;;;;;5.13;4.25;;;13.50;99.90;;;;;;5032364;28;20417;-80
2022/08/13 07:13:05;;;;;;;6.80;5.13;;;13.60;99.90;;;;;;5018250;28;20022;-80
2022/08/13 07:15:31;;;;;;;7.30;4.68;;;13.80;99.90;;;;;;5035940;28;20076;-80
2022/08/13 07:17:58;;;;;;;4.47;3.22;;;13.90;99.90;;;;;;5017209;28;20047;-80
2022/08/13 07:20:25;;;;;;;4.93;3.70;;;14.00;99.90;;;;;;5015101;28;20026;-80
2022/08/13 07:22:55;;;;;;;5.65;4.43;;;14.20;99.90;;;;;;5035371;28;20024;-80
2022/08/13 07:25:23;;;;;;;5.50;4.10;;;14.30;99.90;;;;;;5014025;28;20072;-80
2022/08/13 07:27:51;;;;;;;4.80;3.20;;;14.40;99.90;;;;;;5018667;28;20539;-81
2022/08/13 07:30:17;;;;;;;5.80;3.95;;;14.50;99.90;;;;;;5019186;28;20044;-80
2022/08/13 07:32:42;;;;;;;4.60;3.97;;;14.70;99.90;;;;;;5018306;28;20026;-80
2022/08/13 07:35:09;;;;;;;3.60;2.88;;;14.80;99.90;;;;;;5018013;28;20057;-80
2022/08/13 07:37:36;;;;;;;3.67;2.70;;;14.90;99.90;;;;;;5018684;28;20433;-80
2022/08/13 07:40:08;;;;;;;4.18;3.00;;;15.00;99.90;;;;;;5034977;28;20105;-80
2022/08/13 07:42:38;;;;;;;4.30;3.22;;;15.10;99.90;;;;;;5035498;28;20068;-80
2022/08/13 07:45:09;;;;;;;4.60;3.10;;;15.30;99.90;;;;;;5035444;28;20040;-80
2022/08/13 07:47:36;;;;;;;5.13;3.83;;;15.40;99.90;;;;;;5017738;28;20025;-80
2022/08/13 07:50:05;;;;;;;4.43;2.63;;;15.60;99.90;;;;;;5017630;28;20670;-81
2022/08/13 07:52:32;;;;;;;3.20;2.60;;;15.70;99.90;;;;;;5017584;28;20545;-81
2022/08/13 07:55:01;;;;;;;4.80;2.70;;;15.90;99.90;;;;;;5012801;28;20152;-79
2022/08/13 07:57:31;;;;;;;3.70;2.65;;;15.90;99.90;;;;;;5041682;28;20017;-79
2022/08/13 07:59:57;;;;;;;6.50;2.67;;;16.10;99.90;;;;;;5018019;28;20037;-79
2022/08/13 08:02:25;;;;;;;3.35;2.17;;;16.20;99.90;;;;;;5017502;28;20489;-79
2022/08/13 08:04:57;;;;;;;3.53;2.58;;;16.40;99.10;;;;;;5035457;28;20049;-79
2022/08/13 08:07:25;;;;;;;5.97;2.67;;;16.50;99.00;;;;;;5035105;28;20018;-79
2022/08/13 08:09:53;;;;;;;4.15;2.83;;;16.60;98.70;;;;;;5034797;28;20032;-79
2022/08/13 08:12:35;;;;;;;2.75;1.90;;;16.80;98.50;;;;;;5034978;28;20029;-79
2022/08/13 08:15:05;;;;;;;2.90;2.05;;;16.90;97.70;;;;;;5034754;28;20025;-79
2022/08/13 08:17:31;;;;;;;2.97;2.17;;;17.00;97.30;;;;;;5034892;28;20029;-79
2022/08/13 08:19:57;;;;;;;4.88;2.53;;;17.10;97.80;;;;;;5017087;28;20022;-79
2022/08/13 08:22:23;;;;;;;5.28;2.40;;;17.20;99.10;;;;;;5016925;28;20033;-79
2022/08/13 08:24:50;;;;;;;5.03;2.22;;;17.40;98.10;;;;;;5012044;28;20060;-79
2022/08/13 08:27:17;;;;;;;4.22;2.35;;;17.50;97.20;;;;;;5016903;28;20057;-79
2022/08/13 08:29:47;;;;;;;4.50;2.00;;;17.70;97.10;;;;;;5015751;28;20055;-80
2022/08/13 08:32:14;;;;;;;3.65;2.50;;;17.80;96.20;;;;;;5034544;28;20038;-79
2022/08/13 08:34:44;;;;;;;2.78;1.92;;;18.00;95.00;;;;;;5016603;28;20048;-79
2022/08/13 08:42:35;;;;;;;6.95;2.10;;;18.20;94.90;;;;;;5016707;28;20112;-79
2022/08/13 08:42:52;;;;;;;7.38;2.28;;;18.60;94.00;;;;;;5034454;28;20048;-79
2022/08/13 08:45:20;;;;;;;3.00;1.85;;;18.80;91.60;;;;;;5034240;28;20030;-79
2022/08/13 08:47:48;;;;;;;4.28;2.05;;;18.80;92.00;;;;;;5034244;28;20519;-79
2022/08/13 08:50:18;;;;;;;3.50;2.00;;;18.90;92.10;;;;;;5016392;28;20116;-79
2022/08/13 08:55:35;;;;;;;4.65;2.08;;;19.20;91.40;;;;;;5031502;28;20048;-79
2022/08/13 08:58:03;;;;;;;4.10;1.90;;;19.30;91.80;;;;;;5016376;28;20482;-78
2022/08/13 09:00:29;;;;;;;2.28;1.83;;;19.50;91.50;;;;;;5016469;28;20116;-78
2022/08/13 09:02:56;;;;;;;6.70;1.98;;;19.50;90.10;;;;;;5016491;28;20060;-78
2022/08/13 09:05:25;;;;;;;3.08;1.80;;;19.60;90.30;;;;;;5016447;28;20509;-78
2022/08/13 09:07:52;;;;;;;3.70;1.80;;;19.70;89.70;;;;;;5034111;28;20461;-78
2022/08/13 09:10:21;;;;;;;3.30;1.77;;;19.80;89.50;;;;;;5016524;28;20030;-78
2022/08/13 09:12:49;;;;;;;2.45;1.90;;;19.90;89.20;;;;;;5016226;28;20033;-78
2022/08/13 09:15:18;;;;;;;4.97;1.90;;;20.10;88.90;;;;;;5016199;28;20061;-78
2022/08/13 09:17:45;;;;;;;3.95;1.70;;;20.20;89.10;;;;;;5016235;28;20115;-78
2022/08/13 09:20:17;;;;;;;3.22;2.00;;;20.30;88.50;;;;;;5034475;28;20424;-78
2022/08/13 09:22:45;;;;;;;3.97;2.00;;;20.50;87.80;;;;;;5034341;28;20021;-78
2022/08/13 09:25:15;;;;;;;2.72;1.80;;;20.60;88.00;;;;;;5016242;28;20029;-78
2022/08/13 09:27:43;;;;;;;2.67;1.35;;;20.70;89.20;;;;;;5015839;28;20026;-79
2022/08/13 09:30:10;;;;;;;2.80;1.40;;;20.90;88.10;;;;;;5015996;28;20497;-79
2022/08/13 09:32:36;;;;;;;4.78;1.42;;;21.00;86.30;;;;;;5016142;28;20037;-78
2022/08/13 09:35:05;;;;;;;2.40;1.35;;;21.20;84.70;;;;;;5033655;28;20033;-78
2022/08/13 09:37:32;;;;;;;3.47;1.52;;;21.20;80.90;;;;;;5016114;28;20018;-78
2022/08/13 09:40:11;;;;;;;3.22;1.67;;;21.40;84.00;;;;;;5033614;28;20032;-78
2022/08/13 09:42:46;;;;;;;3.40;2.03;;;21.40;81.60;;;;;;5033505;28;20038;-78
2022/08/13 09:45:12;;;;;;;3.22;1.60;;;21.50;80.60;;;;;;5015828;28;20409;-78
2022/08/13 09:47:40;;;;;;;4.55;1.55;;;21.60;79.60;;;;;;5015817;28;20026;-78
2022/08/13 09:50:08;;;;;;;4.35;1.30;;;21.80;80.90;;;;;;5033692;28;20025;-78
2022/08/13 09:52:34;;;;;;;2.20;1.27;;;21.90;77.70;;;;;;5015816;28;20065;-78
2022/08/13 09:55:00;;;;;;;2.42;1.30;;;22.10;76.80;;;;;;5033477;28;20068;-78
2022/08/13 09:57:26;;;;;;;3.40;1.30;;;22.20;74.50;;;;;;5043935;28;20025;-79
2022/08/13 09:59:52;;;;;;;2.00;1.30;;;22.30;76.10;;;;;;5015155;28;20477;-78
2022/08/13 10:02:17;;;;;;;3.40;1.20;;;22.50;75.90;;;;;;5015614;28;20104;-78
2022/08/13 10:04:44;;;;;;;2.17;1.42;;;22.60;75.60;;;;;;5015681;28;20021;-79
2022/08/13 10:07:12;;;;;;;2.80;1.40;;;22.70;74.00;;;;;;5015817;28;20025;-78
2022/08/13 10:09:41;;;;;;;2.78;1.33;;;22.80;72.80;;;;;;5015739;28;20029;-78
2022/08/13 10:12:08;;;;;;;2.92;1.38;;;22.90;72.20;;;;;;5015999;28;20074;-79
2022/08/13 10:14:34;;;;;;;2.78;1.27;;;22.90;70.20;;;;;;5033191;28;20021;-78
2022/08/13 10:17:01;;;;;;;1.90;1.10;;;23.10;71.10;;;;;;5015710;28;20033;-79
2022/08/13 10:19:27;;;;;;;3.10;1.08;;;23.30;68.30;;;;;;5015607;28;20452;-78
2022/08/13 10:21:52;;;;;;;5.43;1.40;;;23.40;68.10;;;;;;5033350;28;20386;-78
2022/08/13 10:24:18;;;;;;;3.28;1.20;;;23.60;68.30;;;;;;5033252;28;20036;-78
2022/08/13 10:26:44;;;;;;;2.22;1.10;;;23.60;67.50;;;;;;5033311;28;20032;-78
2022/08/13 10:29:11;;;;;;;2.42;1.20;;;23.60;64.50;;;;;;5033170;28;20128;-78
2022/08/13 10:31:37;;;;;;;3.22;1.10;;;23.70;65.90;;;;;;5033164;28;20043;-78
2022/08/13 10:34:05;;;;;;;1.83;1.20;;;23.70;64.30;;;;;;5015705;28;20028;-78
2022/08/13 10:36:32;;;;;;;2.92;1.10;;;23.80;63.60;;;;;;5015277;28;20386;-78
2022/08/13 10:38:59;;;;;;;1.85;1.08;;;23.90;62.70;;;;;;5015319;28;20367;-79
2022/08/13 10:41:24;;;;;;;1.52;1.00;;;24.10;63.50;;;;;;5016143;28;20045;-78
2022/08/13 10:43:51;;;;;;;3.88;1.40;;;24.20;61.90;;;;;;5032924;28;20026;-85
2022/08/13 10:46:17;;;;;;;1.88;1.08;;;24.30;63.60;;;;;;5033374;28;20525;-78
2022/08/13 10:48:43;;;;;;;;;;;24.40;62.10;;;;;;5033295;28;20470;-78
2022/08/13 10:51:09;;;;;;;;;;;24.40;62.00;;;;;;5015675;28;20323;-78
2022/08/13 10:56:19;;;;;;;;;;;24.60;61.90;;;;;;5033312;28;19916;-80
2022/08/13 10:58:45;;;;;;;;;;;24.80;60.10;;;;;;5033179;28;19905;-78
2022/08/13 11:01:10;;;;;;;;;;;24.90;58.60;;;;;;5015847;28;20353;-78
2022/08/13 11:03:37;;;;;;;;;;;24.90;57.80;;;;;;5019437;28;19928;-78
2022/08/13 11:06:04;;;;;;;;;;;24.90;57.60;;;;;;5018958;28;19905;-79
2022/08/13 11:08:37;;;;;;;;;;;25.00;57.60;;;;;;5017712;28;19909;-80
2022/08/13 11:11:04;;;;;;;;;;;25.10;59.60;;;;;;5033046;28;19904;-81
2022/08/13 11:13:31;;;;;;;;;;;25.20;60.00;;;;;;5013824;28;19916;-79
2022/08/13 11:15:58;;;;;;;;;;;25.30;59.70;;;;;;5036641;28;19909;-79
2022/08/13 11:18:24;;;;;;;;;;;25.40;59.30;;;;;;5036635;28;19905;-78
2022/08/13 11:21:06;;;;;;;;;;;25.40;58.80;;;;;;5036897;28;19931;-78
2022/08/13 11:23:32;;;;;;;;;;;25.40;59.40;;;;;;5036644;28;20303;-78
2022/08/13 11:25:58;;;;;;;;;;;25.50;61.20;;;;;;5018826;28;20265;-78
2022/08/13 11:28:23;;;;;;;;;;;25.60;61.00;;;;;;5018947;28;19928;-78
2022/08/13 11:30:50;;;;;;;;;;;25.70;56.50;;;;;;5018703;28;19959;-78
2022/08/13 11:33:15;;;;;;;;;;;25.70;57.60;;;;;;5018936;28;19913;-78
2022/08/13 11:35:41;;;;;;;;;;;25.80;58.00;;;;;;5018625;28;19913;-78
2022/08/13 11:38:08;;;;;;;;;;;25.80;57.20;;;;;;5036288;28;19995;-78
2022/08/13 11:40:34;;;;;;;;;;;25.90;56.30;;;;;;5018513;28;19943;-79
2022/08/13 11:43:00;;;;;;;;;;;25.90;58.20;;;;;;5018490;28;19913;-78
2022/08/13 11:45:26;;;;;;;;;;;25.90;55.00;;;;;;5018296;28;19905;-78
2022/08/13 11:47:51;;;;;;;;;;;25.80;56.40;;;;;;5036490;28;19912;-78
2022/08/13 11:50:17;;;;;;;;;;;25.80;57.60;;;;;;5018411;28;19912;-78
2022/08/13 11:52:42;;;;;;;;;;;25.90;58.00;;;;;;5036463;28;19905;-78
2022/08/13 11:55:08;;;;;;;;;;;26.00;57.20;;;;;;4998856;28;19909;-78
2022/08/13 11:57:34;;;;;;;;;;;26.10;54.80;;;;;;5027581;28;19912;-79
2022/08/13 11:59:59;;;;;;;;;;;26.20;57.10;;;;;;5018081;28;19910;-78
2022/08/13 12:02:25;;;;;;;;;;;26.20;56.20;;;;;;5036477;28;19954;-79
2022/08/13 12:04:51;;;;;;;;;;;26.40;58.20;;;;;;5018081;28;19956;-79
2022/08/13 12:07:16;;;;;;;;;;;26.40;56.40;;;;;;5036235;28;19909;-79
2022/08/13 12:09:42;;;;;;;;;;;26.40;56.90;;;;;;5017966;28;19940;-79
2022/08/13 12:12:08;;;;;;;;;;;26.40;55.90;;;;;;5017985;28;20349;-79
2022/08/13 12:14:33;;;;;;;;;;;26.40;56.10;;;;;;5016677;28;19928;-79
2022/08/13 12:16:59;;;;;;;;;;;26.40;56.10;;;;;;5036666;28;19962;-79
2022/08/13 12:19:24;;;;;;;;;;;26.40;55.90;;;;;;5017671;28;20288;-79
2022/08/13 12:21:50;;;;;;;;;;;26.40;56.00;;;;;;5018077;28;19927;-78
2022/08/13 12:24:15;;;;;;;;;;;26.50;58.40;;;;;;5017752;28;20351;-79
2022/08/13 12:26:41;;;;;;;;;;;26.50;57.10;;;;;;5018057;28;19911;-78
2022/08/13 12:29:07;;;;;;;;;;;26.60;57.10;;;;;;5026909;28;19954;-79
2022/08/13 12:31:32;;;;;;;;;;;26.50;56.70;;;;;;5017519;28;20358;-78
2022/08/13 12:33:58;;;;;;;;;;;26.50;58.40;;;;;;5017538;28;19905;-79
2022/08/13 12:36:23;;;;;;;;;;;26.50;56.20;;;;;;5035522;28;19909;-79
2022/08/13 12:38:49;;;;;;;;;;;26.40;56.10;;;;;;5035379;28;19909;-79
2022/08/13 12:41:14;;;;;;;;;;;26.40;58.00;;;;;;5017600;28;19920;-79
2022/08/13 12:43:40;;;;;;;;;;;26.40;59.20;;;;;;5017395;28;19917;-79
2022/08/13 12:46:06;;;;;;;;;;;26.50;55.50;;;;;;5017206;28;19905;-79
2022/08/13 12:48:31;;;;;;;;;;;26.50;55.80;;;;;;5017481;28;19905;-79
2022/08/13 12:50:57;;;;;;;;;;;26.30;55.10;;;;;;5017234;28;19905;-79
2022/08/13 12:53:23;;;;;;;;;;;26.10;58.20;;;;;;5017239;28;19905;-79
2022/08/13 12:55:49;;;;;;;;;;;26.10;56.80;;;;;;5017336;28;19956;-79
2022/08/13 12:58:20;;;;;;;;;;;26.10;57.40;;;;;;5034833;28;20284;-79
2022/08/13 13:00:47;;;;;;;;;;;26.20;57.40;;;;;;5034682;28;19905;-79
2022/08/13 13:03:13;;;;;;;;;;;26.20;58.20;;;;;;5034915;28;19912;-79
2022/08/13 13:05:39;;;;;;;;;;;26.10;56.30;;;;;;5018496;28;19905;-79
2022/08/13 13:08:25;;;;;;;;;;;26.00;56.10;;;;;;5016866;28;19905;-79
2022/08/13 13:10:51;;;;;;;;;;;25.80;58.00;;;;;;5016802;28;19905;-79
2022/08/13 13:13:18;;;;;;;;;;;25.80;58.70;;;;;;5016722;28;19905;-80
2022/08/13 13:15:44;;;;;;;;;;;25.70;59.70;;;;;;5034446;28;19959;-79
2022/08/13 13:18:14;;;;;;;;;;;25.60;59.40;;;;;;5034995;28;20349;-79
2022/08/13 13:20:41;;;;;;;;;;;25.50;57.90;;;;;;5015323;28;20066;-79
2022/08/13 13:23:09;;;;;;;;;;;25.50;59.60;;;;;;5017362;28;20277;-79
2022/08/13 13:25:34;;;;;;;;;;;25.30;60.10;;;;;;5016156;28;19912;-83